sensor_id;sensor_type;location;lat;lon;timestamp;pressure;altitude;pressure_sealevel;temperature;humidity
11011;BME280;5558;42.702;23.178;2022-07-05T00:00:55;93848.25;;;19.69;94.64
11011;BME280;5558;42.702;23.178;2022-07-05T00:03:22;93853.91;;;19.51;95.04
11011;BME280;5558;42.702;23.178;2022-07-05T00:05:49;93841.78;;;19.53;95.04
11011;BME280;5558;42.702;23.178;2022-07-05T00:08:15;93836.53;;;19.39;94.99
11011;BME280;5558;42.702;23.178;2022-07-05T00:10:42;93847.31;;;19.57;93.89
11011;BME280;5558;42.702;23.178;2022-07-05T00:13:10;93841.28;;;19.42;93.98
11011;BME280;5558;42.702;23.178;2022-07-05T00:15:38;93842.69;;;19.49;94.89
11011;BME280;5558;42.702;23.178;2022-07-05T00:18:05;93849.97;;;19.48;94.99
11011;BME280;5558;42.702;23.178;2022-07-05T00:20:32;93843.00;;;19.30;94.72
11011;BME280;5558;42.702;23.178;2022-07-05T00:22:59;93849.50;;;19.37;93.32
11011;BME280;5558;42.702;23.178;2022-07-05T00:25:26;93848.69;;;19.46;91.99
11011;BME280;5558;42.702;23.178;2022-07-05T00:27:53;93836.72;;;19.52;91.61
11011;BME280;5558;42.702;23.178;2022-07-05T00:30:20;93834.97;;;19.56;91.14
11011;BME280;5558;42.702;23.178;2022-07-05T00:32:48;93836.41;;;19.53;90.47
11011;BME280;5558;42.702;23.178;2022-07-05T00:35:15;93834.44;;;19.28;90.27
11011;BME280;5558;42.702;23.178;2022-07-05T00:37:42;93816.84;;;18.96;92.82
11011;BME280;5558;42.702;23.178;2022-07-05T00:40:09;93826.97;;;19.08;92.02
11011;BME280;5558;42.702;23.178;2022-07-05T00:42:36;93838.66;;;19.12;91.51
11011;BME280;5558;42.702;23.178;2022-07-05T00:45:04;93833.28;;;19.03;92.62
11011;BME280;5558;42.702;23.178;2022-07-05T00:47:31;93826.19;;;19.07;92.51
11011;BME280;5558;42.702;23.178;2022-07-05T00:49:59;93831.06;;;19.05;93.13
11011;BME280;5558;42.702;23.178;2022-07-05T00:52:26;93843.63;;;18.88;94.28
11011;BME280;5558;42.702;23.178;2022-07-05T00:54:53;93837.06;;;18.94;93.72
11011;BME280;5558;42.702;23.178;2022-07-05T00:57:21;93833.41;;;18.90;93.38
11011;BME280;5558;42.702;23.178;2022-07-05T00:59:48;93823.28;;;18.87;92.57
11011;BME280;5558;42.702;23.178;2022-07-05T01:02:15;93829.16;;;18.89;92.85
11011;BME280;5558;42.702;23.178;2022-07-05T01:04:42;93831.81;;;18.89;93.17
11011;BME280;5558;42.702;23.178;2022-07-05T01:07:10;93836.88;;;18.90;92.72
11011;BME280;5558;42.702;23.178;2022-07-05T01:09:37;93833.56;;;18.93;91.17
11011;BME280;5558;42.702;23.178;2022-07-05T01:12:05;93836.66;;;18.70;91.94
11011;BME280;5558;42.702;23.178;2022-07-05T01:14:32;93835.31;;;18.59;93.81
11011;BME280;5558;42.702;23.178;2022-07-05T01:16:59;93839.78;;;18.63;94.36
11011;BME280;5558;42.702;23.178;2022-07-05T01:19:26;93837.63;;;18.74;93.79
11011;BME280;5558;42.702;23.178;2022-07-05T01:21:53;93849.56;;;18.68;95.04
11011;BME280;5558;42.702;23.178;2022-07-05T01:24:22;93847.19;;;18.66;95.55
11011;BME280;5558;42.702;23.178;2022-07-05T01:26:50;93837.91;;;18.72;94.95
11011;BME280;5558;42.702;23.178;2022-07-05T01:29:17;93840.44;;;18.77;95.44
11011;BME280;5558;42.702;23.178;2022-07-05T01:31:44;93840.13;;;18.70;96.41
11011;BME280;5558;42.702;23.178;2022-07-05T01:34:11;93849.25;;;18.69;96.35
11011;BME280;5558;42.702;23.178;2022-07-05T01:36:38;93844.91;;;18.51;98.27
11011;BME280;5558;42.702;23.178;2022-07-05T01:39:07;93843.22;;;18.55;98.59
11011;BME280;5558;42.702;23.178;2022-07-05T01:41:36;93839.50;;;18.43;99.51
11011;BME280;5558;42.702;23.178;2022-07-05T01:44:03;93840.63;;;18.42;99.18
11011;BME280;5558;42.702;23.178;2022-07-05T01:46:32;93838.72;;;18.42;98.56
11011;BME280;5558;42.702;23.178;2022-07-05T01:49:05;93843.63;;;18.49;98.09
11011;BME280;5558;42.702;23.178;2022-07-05T01:51:35;93830.19;;;18.40;98.75
11011;BME280;5558;42.702;23.178;2022-07-05T01:54:04;93791.25;;;18.12;98.90
11011;BME280;5558;42.702;23.178;2022-07-05T01:56:31;93808.66;;;18.23;99.02
11011;BME280;5558;42.702;23.178;2022-07-05T01:59:00;93827.47;;;18.32;99.38
11011;BME280;5558;42.702;23.178;2022-07-05T02:01:35;93819.66;;;18.21;99.75
11011;BME280;5558;42.702;23.178;2022-07-05T02:04:03;93832.91;;;18.18;100.00
11011;BME280;5558;42.702;23.178;2022-07-05T02:06:31;93825.63;;;18.18;100.00
11011;BME280;5558;42.702;23.178;2022-07-05T02:08:58;93832.09;;;18.17;100.00
11011;BME280;5558;42.702;23.178;2022-07-05T02:11:25;93838.25;;;18.18;100.00
11011;BME280;5558;42.702;23.178;2022-07-05T02:13:52;93839.53;;;18.20;100.00
11011;BME280;5558;42.702;23.178;2022-07-05T02:16:23;93842.19;;;18.20;100.00
11011;BME280;5558;42.702;23.178;2022-07-05T02:18:50;93812.63;;;18.03;100.00
11011;BME280;5558;42.702;23.178;2022-07-05T02:21:17;93846.41;;;18.13;99.24
11011;BME280;5558;42.702;23.178;2022-07-05T02:23:44;93846.56;;;18.16;97.99
11011;BME280;5558;42.702;23.178;2022-07-05T02:26:11;93845.69;;;18.21;96.29
11011;BME280;5558;42.702;23.178;2022-07-05T02:28:38;93852.75;;;18.17;96.67
11011;BME280;5558;42.702;23.178;2022-07-05T02:31:06;93854.81;;;17.98;97.64
11011;BME280;5558;42.702;23.178;2022-07-05T02:33:34;93858.78;;;18.00;95.88
11011;BME280;5558;42.702;23.178;2022-07-05T02:36:05;93850.31;;;17.85;94.82
11011;BME280;5558;42.702;23.178;2022-07-05T02:38:33;93867.19;;;17.85;96.22
11011;BME280;5558;42.702;23.178;2022-07-05T02:41:00;93855.84;;;17.88;96.32
11011;BME280;5558;42.702;23.178;2022-07-05T02:43:27;93863.13;;;17.74;97.34
11011;BME280;5558;42.702;23.178;2022-07-05T02:45:53;93852.81;;;17.81;97.60
11011;BME280;5558;42.702;23.178;2022-07-05T02:48:20;93858.59;;;17.75;97.31
11011;BME280;5558;42.702;23.178;2022-07-05T02:50:48;93864.44;;;17.77;96.65
11011;BME280;5558;42.702;23.178;2022-07-05T02:53:15;93858.66;;;17.83;96.06
11011;BME280;5558;42.702;23.178;2022-07-05T02:55:42;93862.91;;;17.84;95.90
11011;BME280;5558;42.702;23.178;2022-07-05T02:58:09;93864.69;;;17.89;94.94
11011;BME280;5558;42.702;23.178;2022-07-05T03:00:35;93861.28;;;17.97;93.81
11011;BME280;5558;42.702;23.178;2022-07-05T03:03:02;93861.94;;;17.80;91.41
11011;BME280;5558;42.702;23.178;2022-07-05T03:05:29;93831.63;;;17.71;89.35
11011;BME280;5558;42.702;23.178;2022-07-05T03:07:57;93855.59;;;17.98;88.10
11011;BME280;5558;42.702;23.178;2022-07-05T03:10:24;93855.50;;;18.03;88.89
11011;BME280;5558;42.702;23.178;2022-07-05T03:12:51;93857.59;;;18.15;89.73
11011;BME280;5558;42.702;23.178;2022-07-05T03:15:18;93859.84;;;18.21;89.91
11011;BME280;5558;42.702;23.178;2022-07-05T03:17:45;93864.44;;;18.21;90.04
11011;BME280;5558;42.702;23.178;2022-07-05T03:20:12;93858.63;;;18.27;89.43
11011;BME280;5558;42.702;23.178;2022-07-05T03:22:38;93858.03;;;18.31;89.73
11011;BME280;5558;42.702;23.178;2022-07-05T03:25:08;93852.03;;;18.34;89.59
11011;BME280;5558;42.702;23.178;2022-07-05T03:27:35;93855.03;;;18.32;91.07
11011;BME280;5558;42.702;23.178;2022-07-05T03:30:02;93854.13;;;18.37;91.29
11011;BME280;5558;42.702;23.178;2022-07-05T03:32:29;93851.69;;;18.49;90.69
11011;BME280;5558;42.702;23.178;2022-07-05T03:34:56;93835.72;;;18.44;90.79
11011;BME280;5558;42.702;23.178;2022-07-05T03:37:23;93848.63;;;18.64;90.98
11011;BME280;5558;42.702;23.178;2022-07-05T03:39:50;93851.22;;;18.94;89.95
11011;BME280;5558;42.702;23.178;2022-07-05T03:42:19;93849.41;;;19.20;88.76
11011;BME280;5558;42.702;23.178;2022-07-05T03:44:46;93848.22;;;19.43;86.48
11011;BME280;5558;42.702;23.178;2022-07-05T03:47:13;93841.00;;;19.78;83.68
11011;BME280;5558;42.702;23.178;2022-07-05T03:49:40;93850.91;;;20.12;82.26
11011;BME280;5558;42.702;23.178;2022-07-05T03:52:07;93852.94;;;20.49;79.59
11011;BME280;5558;42.702;23.178;2022-07-05T03:54:34;93844.47;;;20.76;76.92
11011;BME280;5558;42.702;23.178;2022-07-05T03:57:00;93847.03;;;21.10;75.91
11011;BME280;5558;42.702;23.178;2022-07-05T03:59:29;93848.69;;;21.52;72.71
11011;BME280;5558;42.702;23.178;2022-07-05T04:01:55;93838.25;;;21.71;70.00
11011;BME280;5558;42.702;23.178;2022-07-05T04:04:22;93857.25;;;22.16;68.16
11011;BME280;5558;42.702;23.178;2022-07-05T04:06:49;93853.88;;;22.52;67.83
11011;BME280;5558;42.702;23.178;2022-07-05T04:09:16;93853.19;;;22.87;66.06
11011;BME280;5558;42.702;23.178;2022-07-05T04:11:43;93857.16;;;23.26;62.71
11011;BME280;5558;42.702;23.178;2022-07-05T04:14:09;93852.88;;;23.61;60.17
11011;BME280;5558;42.702;23.178;2022-07-05T04:16:38;93846.94;;;23.95;57.92
11011;BME280;5558;42.702;23.178;2022-07-05T04:19:05;93852.63;;;24.30;55.63
11011;BME280;5558;42.702;23.178;2022-07-05T04:21:31;93849.13;;;24.73;52.13
11011;BME280;5558;42.702;23.178;2022-07-05T04:23:58;93849.44;;;24.99;51.14
11011;BME280;5558;42.702;23.178;2022-07-05T04:26:26;93843.88;;;25.39;50.21
11011;BME280;5558;42.702;23.178;2022-07-05T04:28:53;93844.59;;;25.70;48.39
11011;BME280;5558;42.702;23.178;2022-07-05T04:31:20;93840.91;;;25.97;45.60
11011;BME280;5558;42.702;23.178;2022-07-05T04:33:48;93845.75;;;26.23;45.14
11011;BME280;5558;42.702;23.178;2022-07-05T04:36:15;93844.75;;;26.31;44.43
11011;BME280;5558;42.702;23.178;2022-07-05T04:38:42;93843.56;;;26.51;42.65
11011;BME280;5558;42.702;23.178;2022-07-05T04:41:09;93840.78;;;26.48;41.71
11011;BME280;5558;42.702;23.178;2022-07-05T04:43:36;93842.25;;;26.83;41.72
11011;BME280;5558;42.702;23.178;2022-07-05T04:46:02;93852.53;;;26.93;41.55
11011;BME280;5558;42.702;23.178;2022-07-05T04:48:29;93856.19;;;27.01;42.24
11011;BME280;5558;42.702;23.178;2022-07-05T04:50:58;93851.66;;;27.31;42.44
11011;BME280;5558;42.702;23.178;2022-07-05T04:53:24;93847.88;;;27.62;42.12
11011;BME280;5558;42.702;23.178;2022-07-05T04:55:51;93851.03;;;27.67;41.26
11011;BME280;5558;42.702;23.178;2022-07-05T04:58:18;93854.16;;;27.92;40.95
11011;BME280;5558;42.702;23.178;2022-07-05T05:00:45;93857.03;;;28.32;40.17
11011;BME280;5558;42.702;23.178;2022-07-05T05:03:11;93857.88;;;28.36;40.06
11011;BME280;5558;42.702;23.178;2022-07-05T05:05:38;93862.63;;;28.42;40.32
11011;BME280;5558;42.702;23.178;2022-07-05T05:08:06;93860.72;;;28.46;40.68
11011;BME280;5558;42.702;23.178;2022-07-05T05:10:33;93866.78;;;28.62;39.76
11011;BME280;5558;42.702;23.178;2022-07-05T05:13:00;93863.44;;;28.46;40.29
11011;BME280;5558;42.702;23.178;2022-07-05T05:15:27;93866.84;;;29.06;39.95
11011;BME280;5558;42.702;23.178;2022-07-05T05:17:53;93865.94;;;29.32;39.13
11011;BME280;5558;42.702;23.178;2022-07-05T05:20:20;93869.09;;;29.81;38.15
11011;BME280;5558;42.702;23.178;2022-07-05T05:22:47;93868.34;;;29.87;37.25
11011;BME280;5558;42.702;23.178;2022-07-05T05:25:15;93864.94;;;29.50;37.48
11011;BME280;5558;42.702;23.178;2022-07-05T05:27:43;93873.41;;;29.85;37.03
11011;BME280;5558;42.702;23.178;2022-07-05T05:30:11;93865.28;;;29.45;37.16
11011;BME280;5558;42.702;23.178;2022-07-05T05:32:40;93866.94;;;29.57;36.75
11011;BME280;5558;42.702;23.178;2022-07-05T05:35:07;93856.97;;;30.40;35.58
11011;BME280;5558;42.702;23.178;2022-07-05T05:37:45;93868.53;;;30.94;35.10
11011;BME280;5558;42.702;23.178;2022-07-05T05:40:12;93859.25;;;31.45;33.20
11011;BME280;5558;42.702;23.178;2022-07-05T05:42:41;93861.19;;;31.55;32.89
11011;BME280;5558;42.702;23.178;2022-07-05T05:45:08;93851.72;;;32.37;32.41
11011;BME280;5558;42.702;23.178;2022-07-05T05:47:43;93860.34;;;32.35;31.53
11011;BME280;5558;42.702;23.178;2022-07-05T05:50:10;93865.59;;;33.02;30.58
11011;BME280;5558;42.702;23.178;2022-07-05T05:52:36;93867.91;;;33.03;30.71
11011;BME280;5558;42.702;23.178;2022-07-05T05:55:04;93861.25;;;33.66;29.97
11011;BME280;5558;42.702;23.178;2022-07-05T05:57:31;93872.63;;;33.68;30.31
11011;BME280;5558;42.702;23.178;2022-07-05T05:59:59;93876.53;;;33.71;30.61
11011;BME280;5558;42.702;23.178;2022-07-05T06:02:26;93867.75;;;33.86;30.78
11011;BME280;5558;42.702;23.178;2022-07-05T06:04:53;93868.81;;;33.52;30.15
11011;BME280;5558;42.702;23.178;2022-07-05T06:07:19;93881.41;;;32.66;30.74
11011;BME280;5558;42.702;23.178;2022-07-05T06:09:47;93870.53;;;32.42;30.43
11011;BME280;5558;42.702;23.178;2022-07-05T06:12:14;93875.91;;;33.46;29.26
11011;BME280;5558;42.702;23.178;2022-07-05T06:14:41;93880.38;;;34.24;27.94
11011;BME280;5558;42.702;23.178;2022-07-05T06:17:09;93888.03;;;33.52;29.62
11011;BME280;5558;42.702;23.178;2022-07-05T06:19:35;93888.56;;;32.14;29.85
11011;BME280;5558;42.702;23.178;2022-07-05T06:22:02;93884.28;;;31.78;32.01
11011;BME280;5558;42.702;23.178;2022-07-05T06:24:29;93883.84;;;31.27;31.80
11011;BME280;5558;42.702;23.178;2022-07-05T06:26:56;93886.06;;;30.83;33.28
11011;BME280;5558;42.702;23.178;2022-07-05T06:29:22;93877.22;;;32.19;32.12
11011;BME280;5558;42.702;23.178;2022-07-05T06:31:49;93880.28;;;32.50;30.80
11011;BME280;5558;42.702;23.178;2022-07-05T06:34:17;93881.56;;;32.03;30.63
11011;BME280;5558;42.702;23.178;2022-07-05T06:36:44;93879.00;;;32.82;29.93
11011;BME280;5558;42.702;23.178;2022-07-05T06:39:11;93882.56;;;33.48;28.86
11011;BME280;5558;42.702;23.178;2022-07-05T06:41:38;93885.28;;;34.06;27.99
11011;BME280;5558;42.702;23.178;2022-07-05T06:44:05;93882.00;;;34.93;28.37
11011;BME280;5558;42.702;23.178;2022-07-05T06:46:32;93881.44;;;33.90;28.64
11011;BME280;5558;42.702;23.178;2022-07-05T06:48:58;93875.69;;;33.77;28.99
11011;BME280;5558;42.702;23.178;2022-07-05T06:51:26;93873.88;;;35.12;27.69
11011;BME280;5558;42.702;23.178;2022-07-05T06:53:53;93873.09;;;35.69;27.58
11011;BME280;5558;42.702;23.178;2022-07-05T06:56:20;93874.44;;;36.07;27.32
11011;BME280;5558;42.702;23.178;2022-07-05T06:58:46;93868.44;;;36.35;26.68
11011;BME280;5558;42.702;23.178;2022-07-05T07:01:13;93876.44;;;36.49;26.02
11011;BME280;5558;42.702;23.178;2022-07-05T07:03:40;93868.72;;;38.22;25.43
11011;BME280;5558;42.702;23.178;2022-07-05T07:06:07;93866.59;;;38.42;24.44
11011;BME280;5558;42.702;23.178;2022-07-05T07:08:35;93873.44;;;39.24;23.39
11011;BME280;5558;42.702;23.178;2022-07-05T07:11:19;93883.41;;;40.68;21.79
11011;BME280;5558;42.702;23.178;2022-07-05T07:13:46;93888.50;;;41.26;21.52
11011;BME280;5558;42.702;23.178;2022-07-05T07:16:13;93892.91;;;41.66;20.42
11011;BME280;5558;42.702;23.178;2022-07-05T07:18:40;93888.97;;;42.25;20.01
11011;BME280;5558;42.702;23.178;2022-07-05T07:21:06;93886.41;;;42.49;19.96
11011;BME280;5558;42.702;23.178;2022-07-05T07:23:34;93882.00;;;41.81;20.49
11011;BME280;5558;42.702;23.178;2022-07-05T07:26:02;93881.44;;;42.53;19.95
11011;BME280;5558;42.702;23.178;2022-07-05T07:28:29;93876.66;;;42.53;20.81
11011;BME280;5558;42.702;23.178;2022-07-05T07:30:56;93873.28;;;41.61;19.87
11011;BME280;5558;42.702;23.178;2022-07-05T07:33:23;93875.56;;;41.93;19.81
11011;BME280;5558;42.702;23.178;2022-07-05T07:35:49;93880.59;;;42.16;20.19
11011;BME280;5558;42.702;23.178;2022-07-05T07:38:16;93882.09;;;40.39;20.40
11011;BME280;5558;42.702;23.178;2022-07-05T07:40:44;93870.91;;;40.17;20.59
11011;BME280;5558;42.702;23.178;2022-07-05T07:43:11;93872.22;;;38.96;21.29
11011;BME280;5558;42.702;23.178;2022-07-05T07:45:38;93867.06;;;38.09;22.92
11011;BME280;5558;42.702;23.178;2022-07-05T07:48:05;93870.84;;;38.75;22.72
11011;BME280;5558;42.702;23.178;2022-07-05T07:50:32;93861.91;;;37.78;23.83
11011;BME280;5558;42.702;23.178;2022-07-05T07:52:58;93864.13;;;37.32;24.41
11011;BME280;5558;42.702;23.178;2022-07-05T07:55:25;93869.09;;;36.19;25.22
11011;BME280;5558;42.702;23.178;2022-07-05T07:57:53;93861.47;;;37.09;25.22
11011;BME280;5558;42.702;23.178;2022-07-05T08:00:21;93863.06;;;36.67;25.67
11011;BME280;5558;42.702;23.178;2022-07-05T08:02:48;93877.09;;;36.56;24.41
11011;BME280;5558;42.702;23.178;2022-07-05T08:05:15;93863.44;;;34.67;24.83
11011;BME280;5558;42.702;23.178;2022-07-05T08:07:41;93862.31;;;34.23;24.24
11011;BME280;5558;42.702;23.178;2022-07-05T08:10:09;93855.22;;;35.23;23.98
11011;BME280;5558;42.702;23.178;2022-07-05T08:12:35;93863.34;;;35.07;23.67
11011;BME280;5558;42.702;23.178;2022-07-05T08:15:04;93864.72;;;36.22;22.78
11011;BME280;5558;42.702;23.178;2022-07-05T08:17:33;93861.38;;;37.83;22.13
11011;BME280;5558;42.702;23.178;2022-07-05T08:20:00;93856.69;;;38.29;23.19
11011;BME280;5558;42.702;23.178;2022-07-05T08:22:44;93856.41;;;38.39;23.49
11011;BME280;5558;42.702;23.178;2022-07-05T08:25:11;93859.56;;;36.66;25.48
11011;BME280;5558;42.702;23.178;2022-07-05T08:27:39;93856.31;;;35.83;27.25
11011;BME280;5558;42.702;23.178;2022-07-05T08:30:09;93855.38;;;34.49;28.97
11011;BME280;5558;42.702;23.178;2022-07-05T08:32:36;93845.63;;;34.04;29.34
11011;BME280;5558;42.702;23.178;2022-07-05T08:35:04;93847.84;;;33.17;31.08
11011;BME280;5558;42.702;23.178;2022-07-05T08:37:30;93839.91;;;32.64;31.65
11011;BME280;5558;42.702;23.178;2022-07-05T08:39:57;93835.34;;;32.12;31.63
11011;BME280;5558;42.702;23.178;2022-07-05T08:42:24;93839.69;;;31.39;32.58
11011;BME280;5558;42.702;23.178;2022-07-05T08:44:52;93836.06;;;30.82;33.48
11011;BME280;5558;42.702;23.178;2022-07-05T08:47:21;93836.03;;;30.75;34.63
11011;BME280;5558;42.702;23.178;2022-07-05T08:49:49;93829.72;;;30.57;35.29
11011;BME280;5558;42.702;23.178;2022-07-05T08:52:18;93824.56;;;30.38;34.13
11011;BME280;5558;42.702;23.178;2022-07-05T08:54:46;93821.47;;;30.40;36.13
11011;BME280;5558;42.702;23.178;2022-07-05T08:57:13;93830.44;;;30.40;34.24
11011;BME280;5558;42.702;23.178;2022-07-05T08:59:40;93826.94;;;30.43;35.06
11011;BME280;5558;42.702;23.178;2022-07-05T09:02:10;93817.59;;;30.51;37.61
11011;BME280;5558;42.702;23.178;2022-07-05T09:04:43;93826.56;;;30.52;35.08
11011;BME280;5558;42.702;23.178;2022-07-05T09:07:14;93802.28;;;30.29;36.42
11011;BME280;5558;42.702;23.178;2022-07-05T09:09:42;93824.63;;;30.49;36.46
11011;BME280;5558;42.702;23.178;2022-07-05T09:12:11;93808.59;;;30.40;36.34
11011;BME280;5558;42.702;23.178;2022-07-05T09:14:38;93814.00;;;30.33;36.42
11011;BME280;5558;42.702;23.178;2022-07-05T09:17:05;93809.72;;;30.32;36.47
11011;BME280;5558;42.702;23.178;2022-07-05T09:19:32;93802.69;;;30.31;37.65
11011;BME280;5558;42.702;23.178;2022-07-05T09:22:05;93804.28;;;30.43;38.55
11011;BME280;5558;42.702;23.178;2022-07-05T09:24:42;93788.63;;;30.33;38.36
11011;BME280;5558;42.702;23.178;2022-07-05T09:27:09;93802.66;;;30.24;37.68
11011;BME280;5558;42.702;23.178;2022-07-05T09:29:36;93800.34;;;30.30;38.23
11011;BME280;5558;42.702;23.178;2022-07-05T09:32:04;93796.84;;;30.36;39.30
11011;BME280;5558;42.702;23.178;2022-07-05T09:34:31;93801.03;;;30.16;37.78
11011;BME280;5558;42.702;23.178;2022-07-05T09:37:01;93794.38;;;30.07;38.31
11011;BME280;5558;42.702;23.178;2022-07-05T09:39:39;93788.06;;;29.96;38.00
11011;BME280;5558;42.702;23.178;2022-07-05T09:42:14;93794.78;;;30.12;39.00
11011;BME280;5558;42.702;23.178;2022-07-05T09:44:44;93792.50;;;30.25;39.01
11011;BME280;5558;42.702;23.178;2022-07-05T09:47:12;93780.19;;;29.80;38.73
11011;BME280;5558;42.702;23.178;2022-07-05T09:49:42;93784.66;;;30.16;38.92
11011;BME280;5558;42.702;23.178;2022-07-05T09:52:10;93784.66;;;30.20;38.29
11011;BME280;5558;42.702;23.178;2022-07-05T09:54:38;93782.34;;;30.22;37.52
11011;BME280;5558;42.702;23.178;2022-07-05T09:57:05;93769.94;;;30.42;37.84
11011;BME280;5558;42.702;23.178;2022-07-05T09:59:32;93769.22;;;30.62;39.00
11011;BME280;5558;42.702;23.178;2022-07-05T10:01:59;93766.13;;;30.78;37.49
11011;BME280;5558;42.702;23.178;2022-07-05T10:04:26;93766.50;;;30.69;39.55
11011;BME280;5558;42.702;23.178;2022-07-05T10:06:53;93762.91;;;30.48;39.07
11011;BME280;5558;42.702;23.178;2022-07-05T10:09:20;93768.00;;;30.42;37.07
11011;BME280;5558;42.702;23.178;2022-07-05T10:11:50;93761.78;;;30.49;36.19
11011;BME280;5558;42.702;23.178;2022-07-05T10:14:19;93758.69;;;30.64;38.44
11011;BME280;5558;42.702;23.178;2022-07-05T10:17:00;93758.28;;;30.62;37.41
11011;BME280;5558;42.702;23.178;2022-07-05T10:19:31;93746.53;;;30.55;39.34
11011;BME280;5558;42.702;23.178;2022-07-05T10:22:00;93745.00;;;30.50;35.58
11011;BME280;5558;42.702;23.178;2022-07-05T10:24:32;93741.50;;;30.67;36.78
11011;BME280;5558;42.702;23.178;2022-07-05T10:27:02;93743.84;;;30.72;37.98
11011;BME280;5558;42.702;23.178;2022-07-05T10:29:32;93749.31;;;30.62;37.41
11011;BME280;5558;42.702;23.178;2022-07-05T10:32:01;93739.13;;;30.48;36.75
11011;BME280;5558;42.702;23.178;2022-07-05T10:34:28;93734.81;;;30.40;37.72
11011;BME280;5558;42.702;23.178;2022-07-05T10:36:56;93733.63;;;30.38;37.93
11011;BME280;5558;42.702;23.178;2022-07-05T10:39:22;93734.44;;;30.42;39.04
11011;BME280;5558;42.702;23.178;2022-07-05T10:41:51;93737.09;;;30.28;37.12
11011;BME280;5558;42.702;23.178;2022-07-05T10:44:27;93728.94;;;30.38;39.16
11011;BME280;5558;42.702;23.178;2022-07-05T10:47:07;93730.53;;;30.36;40.89
11011;BME280;5558;42.702;23.178;2022-07-05T10:49:36;93716.44;;;30.30;37.98
11011;BME280;5558;42.702;23.178;2022-07-05T10:52:04;93727.03;;;30.46;38.19
11011;BME280;5558;42.702;23.178;2022-07-05T10:54:30;93721.97;;;30.44;38.31
11011;BME280;5558;42.702;23.178;2022-07-05T10:57:22;93717.28;;;30.62;39.84
11011;BME280;5558;42.702;23.178;2022-07-05T11:00:06;93725.91;;;30.68;37.09
11011;BME280;5558;42.702;23.178;2022-07-05T11:02:33;93721.97;;;30.65;38.37
11011;BME280;5558;42.702;23.178;2022-07-05T11:05:00;93720.41;;;30.57;37.95
11011;BME280;5558;42.702;23.178;2022-07-05T11:07:59;93709.47;;;30.50;37.37
11011;BME280;5558;42.702;23.178;2022-07-05T11:10:25;93712.19;;;30.54;36.35
11011;BME280;5558;42.702;23.178;2022-07-05T11:12:52;93699.34;;;30.75;39.62
11011;BME280;5558;42.702;23.178;2022-07-05T11:15:20;93699.38;;;31.00;38.00
11011;BME280;5558;42.702;23.178;2022-07-05T11:17:47;93697.03;;;30.95;37.60
11011;BME280;5558;42.702;23.178;2022-07-05T11:20:16;93695.84;;;30.89;37.63
11011;BME280;5558;42.702;23.178;2022-07-05T11:23:07;93699.72;;;30.77;36.33
11011;BME280;5558;42.702;23.178;2022-07-05T11:25:35;93696.25;;;30.84;36.31
11011;BME280;5558;42.702;23.178;2022-07-05T11:28:20;93700.53;;;30.74;38.50
11011;BME280;5558;42.702;23.178;2022-07-05T11:30:51;93689.19;;;30.76;38.39
11011;BME280;5558;42.702;23.178;2022-07-05T11:33:26;93691.97;;;30.83;37.93
11011;BME280;5558;42.702;23.178;2022-07-05T11:35:53;93693.84;;;30.68;39.55
11011;BME280;5558;42.702;23.178;2022-07-05T11:38:21;93684.91;;;30.64;37.25
11011;BME280;5558;42.702;23.178;2022-07-05T11:40:48;93689.97;;;30.66;38.94
11011;BME280;5558;42.702;23.178;2022-07-05T11:43:25;93671.63;;;30.59;37.54
11011;BME280;5558;42.702;23.178;2022-07-05T11:45:56;93677.84;;;30.63;36.74
11011;BME280;5558;42.702;23.178;2022-07-05T11:48:24;93677.50;;;30.82;39.28
11011;BME280;5558;42.702;23.178;2022-07-05T11:50:51;93671.25;;;30.85;38.28
11011;BME280;5558;42.702;23.178;2022-07-05T11:53:26;93663.44;;;30.98;38.48
11011;BME280;5558;42.702;23.178;2022-07-05T11:55:54;93663.41;;;31.23;38.24
11011;BME280;5558;42.702;23.178;2022-07-05T11:58:22;93656.38;;;31.36;39.45
11011;BME280;5558;42.702;23.178;2022-07-05T12:00:54;93653.22;;;31.30;37.89
11011;BME280;5558;42.702;23.178;2022-07-05T12:03:22;93643.50;;;31.19;36.64
11011;BME280;5558;42.702;23.178;2022-07-05T12:05:49;93643.03;;;31.31;39.38
11011;BME280;5558;42.702;23.178;2022-07-05T12:08:20;93637.22;;;31.15;36.39
11011;BME280;5558;42.702;23.178;2022-07-05T12:10:47;93632.53;;;31.19;39.10
11011;BME280;5558;42.702;23.178;2022-07-05T12:13:42;93634.88;;;31.20;38.54
11011;BME280;5558;42.702;23.178;2022-07-05T12:16:10;93635.28;;;31.08;36.68
11011;BME280;5558;42.702;23.178;2022-07-05T12:18:47;93633.31;;;31.23;37.65
11011;BME280;5558;42.702;23.178;2022-07-05T12:21:14;93628.22;;;31.39;39.14
11011;BME280;5558;42.702;23.178;2022-07-05T12:23:42;93623.88;;;31.48;39.94
11011;BME280;5558;42.702;23.178;2022-07-05T12:26:09;93628.94;;;31.53;41.28
11011;BME280;5558;42.702;23.178;2022-07-05T12:28:36;93618.75;;;31.61;36.98
11011;BME280;5558;42.702;23.178;2022-07-05T12:31:17;93625.38;;;31.63;37.11
11011;BME280;5558;42.702;23.178;2022-07-05T12:33:44;93618.06;;;31.36;36.89
11011;BME280;5558;42.702;23.178;2022-07-05T12:36:13;93630.16;;;31.38;38.54
11011;BME280;5558;42.702;23.178;2022-07-05T12:38:40;93622.75;;;31.28;38.66
11011;BME280;5558;42.702;23.178;2022-07-05T12:41:07;93622.34;;;31.37;37.12
11011;BME280;5558;42.702;23.178;2022-07-05T12:43:49;93618.84;;;31.33;37.70
11011;BME280;5558;42.702;23.178;2022-07-05T12:46:16;93617.69;;;31.20;38.76
11011;BME280;5558;42.702;23.178;2022-07-05T12:48:42;93614.97;;;31.13;39.46
11011;BME280;5558;42.702;23.178;2022-07-05T12:51:10;93611.81;;;31.14;36.03
11011;BME280;5558;42.702;23.178;2022-07-05T12:53:48;93610.28;;;31.20;37.32
11011;BME280;5558;42.702;23.178;2022-07-05T12:56:33;93597.72;;;31.26;38.03
11011;BME280;5558;42.702;23.178;2022-07-05T12:59:17;93600.06;;;31.28;37.07
11011;BME280;5558;42.702;23.178;2022-07-05T13:01:44;93595.00;;;31.26;36.10
11011;BME280;5558;42.702;23.178;2022-07-05T13:04:12;93587.56;;;31.30;36.72
11011;BME280;5558;42.702;23.178;2022-07-05T13:06:44;93581.69;;;31.32;36.67